Latest Weather Observations for Middle Point

IDD60801

Issued at 4:31 am CST Tuesday 24 January 2017 (issued every 30 minutes, with the page automatically refreshed every 10 minutes)

About weather observations | Map of weather stations | Latest weather observations for NT | Other Formats
Station Details ID: 014041 Name: MIDDLE POINT Lat: -12.61 Lon: 131.30 Height: 14.1 m
Data from the previous 72 hours. | See also: Recent months at Middle Point
Date/Time
CST
Temp
°C
App
Temp
°C
Dew
Point
°C
Rel
Hum
%
Delta-T
°C
Wind Press
QNH
hPa
Press
MSL
hPa
Rain since
9am
mm
Dir  Spd
km/h
Gust
km/h
Spd
kts
Gust
kts
24/04:00am 23.0 26.2 21.6 92 0.9 NW 7 11 4 6 1005.7 1005.6 22.6
24/03:30am 22.8 26.1 21.4 92 0.9 NNW 6 9 3 5 1005.2 1005.1 22.6
24/03:00am 22.8 25.8 21.3 91 1.0 WNW 7 9 4 5 1005.3 1005.2 22.6
24/02:30am 22.9 26.0 21.4 91 1.0 NW 7 11 4 6 1005.9 1005.8 22.4
24/02:00am 23.1 25.8 21.4 90 1.1 WNW 9 11 5 6 1006.5 1006.4 22.4
24/01:30am 23.5 24.8 21.6 89 1.3 W 17 22 9 12 1006.9 1006.8 22.4
24/01:00am 23.8 24.9 21.9 89 1.3 WSW 19 26 10 14 1007.2 1007.1 22.4
24/12:30am 24.4 26.3 22.7 90 1.1 W 17 26 9 14 1007.6 1007.5 22.0
24/12:00am 24.6 25.3 23.0 91 1.1 W 24 35 13 19 1007.8 1007.7 21.2
 
Date/Time
CST
Temp
°C
App
Temp
°C
Dew
Point
°C
Rel
Hum
%
Delta-T
°C
Wind Press
QNH
hPa
Press
MSL
hPa
Rain since
9am
mm
Dir  Spd
km/h
Gust
km/h
Spd
kts
Gust
kts
23/11:30pm 24.2 24.7 22.6 91 1.1 WNW 24 35 13 19 1007.5 1007.4 20.0
23/11:00pm 23.9 23.0 22.2 90 1.1 WNW 30 46 16 25 1008.0 1007.9 16.8
23/10:43pm 24.8 25.6 23.2 91 1.1 W 24 43 13 23 1008.1 1008.0 8.6
23/10:30pm 25.3 28.4 23.5 90 1.2 WSW 13 22 7 12 1008.1 1008.0 5.4
23/10:00pm 25.3 29.7 23.5 90 1.2 WNW 6 9 3 5 1007.5 1007.4 4.8
23/09:30pm 25.4 31.0 23.6 90 1.2 CALM 0 2 0 1 1007.2 1007.1 3.8
23/09:00pm 25.2 30.3 23.4 90 1.2 WNW 2 2 1 1 1006.7 1006.6 3.8
23/08:30pm 25.2 29.8 23.1 88 1.4 WNW 4 6 2 3 1006.6 1006.5 3.8
23/08:00pm 25.3 29.4 23.2 88 1.4 NW 7 11 4 6 1006.3 1006.2 3.8
23/07:30pm 25.4 28.6 23.1 87 1.6 NW 11 15 6 8 1006.1 1006.0 3.8
23/07:00pm 25.6 28.8 23.1 86 1.7 WNW 11 19 6 10 1005.8 1005.7 3.8
23/06:30pm 25.5 28.0 23.2 87 1.6 WNW 15 22 8 12 1005.4 1005.3 3.8
23/06:00pm 25.4 28.1 22.9 86 1.7 WNW 13 17 7 9 1005.1 1005.0 3.8
23/05:30pm 25.2 26.7 22.7 86 1.7 WNW 19 24 10 13 1004.3 1004.2 3.8
23/05:00pm 24.9 26.2 22.6 87 1.5 WNW 20 28 11 15 1003.9 1003.8 3.8
23/04:30pm 24.7 25.7 22.9 90 1.2 WNW 22 33 12 18 1004.6 1004.5 3.8
23/04:00pm 28.2 31.1 23.8 77 3.0 NW 15 24 8 13 1004.5 1004.4 1.4
23/03:30pm 28.1 30.2 23.7 77 3.0 WNW 19 26 10 14 1004.7 1004.6 1.4
23/03:00pm 28.0 29.7 23.4 76 3.2 WNW 20 28 11 15 1005.2 1005.1 1.4
23/02:30pm 27.4 28.5 23.0 77 3.0 WNW 22 30 12 16 1005.3 1005.2 1.4
23/02:00pm 27.1 27.5 23.1 79 2.7 WNW 26 37 14 20 1005.5 1005.4 1.4
23/01:30pm 28.7 29.9 23.8 75 3.4 NNW 24 35 13 19 1005.6 1005.5 1.4
23/01:00pm 28.0 29.4 23.6 77 3.0 NNW 22 28 12 15 1006.1 1006.0 1.4
23/12:30pm 29.7 33.1 24.1 72 3.9 NNW 13 17 7 9 1006.2 1006.1 1.4
23/12:00pm 29.5 33.3 24.1 72 3.8 NNW 11 17 6 9 1006.6 1006.5 1.4
23/11:30am 28.9 33.8 24.7 78 2.9 NNW 7 9 4 5 1007.2 1007.1 1.4
23/11:00am 28.4 33.3 24.6 80 2.6 N 7 11 4 6 1007.9 1007.8 1.4
23/10:30am 26.9 31.3 23.8 83 2.1 N 7 9 4 5 1008.2 1008.1 1.4
23/10:00am 26.7 31.9 23.6 83 2.1 W 2 6 1 3 1007.9 1007.8 1.4
23/09:30am 25.7 29.9 23.2 86 1.7 WNW 6 9 3 5 1008.0 1007.9 1.0
23/09:00am 25.4 30.0 23.1 87 1.6 WNW 4 6 2 3 1008.0 1007.9 30.2
23/08:30am 25.2 29.6 23.4 90 1.2 NW 6 7 3 4 1007.8 1007.7 30.2
23/08:00am 24.8 29.8 23.2 91 1.1 NNE 2 4 1 2 1007.9 1007.8 30.2
23/07:30am 24.5 29.7 22.9 91 1.1 CALM 0 4 0 2 1007.4 1007.3 30.2
23/07:00am 24.2 28.5 22.6 91 1.1 N 4 7 2 4 1007.0 1006.9 30.2
23/06:30am 24.3 28.1 22.7 91 1.1 NNW 7 11 4 6 1006.3 1006.2 30.2
23/06:00am 24.6 28.7 23.0 91 1.1 NNW 6 9 3 5 1005.8 1005.7 30.2
23/05:30am 24.8 29.0 23.4 92 1.0 NNW 7 9 4 5 1006.0 1005.9 30.2
23/05:00am 24.9 30.0 23.3 91 1.1 WNW 2 4 1 2 1005.4 1005.3 30.2
23/04:30am 24.9 29.0 23.3 91 1.1 WNW 7 9 4 5 1005.5 1005.4 30.0
23/04:00am 24.8 27.0 23.2 91 1.1 NW 17 22 9 12 1004.9 1004.8 29.6
23/03:30am 25.3 28.5 23.7 91 1.1 NW 13 19 7 10 1005.5 1005.4 26.2
23/03:00am 25.3 29.0 23.9 92 1.0 NNW 11 13 6 7 1005.9 1005.8 26.0
23/02:30am 25.3 29.8 23.9 92 1.0 NNW 7 11 4 6 1006.0 1005.9 26.0
23/02:00am 25.3 30.6 23.7 91 1.1 NNW 2 4 1 2 1006.5 1006.4 25.6
23/01:30am 25.3 29.8 23.7 91 1.1 NW 6 7 3 4 1007.0 1006.9 25.6
23/01:00am 25.4 30.4 23.8 91 1.1 NW 4 6 2 3 1007.3 1007.2 25.6
23/12:30am 25.5 30.0 23.9 91 1.1 NNW 7 9 4 5 1007.7 1007.6 25.6
23/12:00am 25.7 30.3 24.1 91 1.1 NNW 7 11 4 6 1007.7 1007.6 25.6
 
Date/Time
CST
Temp
°C
App
Temp
°C
Dew
Point
°C
Rel
Hum
%
Delta-T
°C
Wind Press
QNH
hPa
Press
MSL
hPa
Rain since
9am
mm
Dir  Spd
km/h
Gust
km/h
Spd
kts
Gust
kts
22/11:30pm 26.0 31.7 24.4 91 1.1 NNW 2 6 1 3 1008.4 1008.3 25.6
22/11:00pm 26.0 31.3 24.4 91 1.1 NW 4 4 2 2 1008.8 1008.7 25.4
22/10:30pm 26.1 31.9 24.5 91 1.1 NE 2 6 1 3 1008.9 1008.8 24.6
22/10:00pm 26.1 32.2 24.5 91 1.1 CALM 0 0 0 0 1008.7 1008.6 23.4
22/09:30pm 26.1 32.2 24.5 91 1.1 CALM 0 0 0 0 1008.5 1008.4 21.6
22/09:00pm 26.0 32.1 24.4 91 1.1 CALM 0 0 0 0 1008.3 1008.2 21.2
22/08:30pm 26.0 32.1 24.4 91 1.1 CALM 0 0 0 0 1008.1 1008.0 21.2
22/08:00pm 25.9 31.2 24.3 91 1.1 N 4 4 2 2 1007.7 1007.6 21.2
22/07:30pm 25.9 31.2 24.3 91 1.1 N 4 6 2 3 1007.5 1007.4 21.2
22/07:00pm 25.9 31.7 23.9 89 1.4 CALM 0 0 0 0 1007.0 1006.9 21.2
22/06:30pm 25.8 30.5 24.0 90 1.2 WNW 6 7 3 4 1006.5 1006.4 21.2
22/06:00pm 25.8 30.1 24.2 91 1.1 WNW 9 11 5 6 1006.7 1006.6 21.2
22/05:30pm 25.3 29.6 23.7 91 1.1 WNW 7 11 4 6 1006.3 1006.2 21.2
22/05:00pm 25.3 26.2 23.4 89 1.3 WNW 24 35 13 19 1006.4 1006.3 19.8
22/04:30pm 25.5 30.0 23.7 90 1.2 NW 6 9 3 5 1005.6 1005.5 9.2
22/04:00pm 25.4 29.1 23.3 88 1.4 NW 9 13 5 7 1006.0 1005.9 8.4
22/03:30pm 25.0 29.7 22.7 87 1.6 WNW 2 6 1 3 1005.4 1005.3 8.4
22/03:00pm 25.6 28.8 23.1 86 1.7 WSW 11 20 6 11 1006.2 1006.1 6.2
22/02:53pm 26.2 28.9 22.9 82 2.2 WSW 13 20 7 11 1006.2 1006.1 2.2
22/02:30pm 26.5 24.9 21.5 74 3.3 W 32 57 17 31 1004.8 1004.7 0.0
22/02:29pm 26.5 25.2 21.3 73 3.4 W 30 57 16 31 1004.9 1004.8 0.0
22/02:27pm 27.0 26.4 20.6 68 4.2 WSW 24 57 13 31 1005.1 1005.0 0.0
22/02:25pm 30.2 31.0 21.3 59 6.0 WSW 19 54 10 29 1005.4 1005.3 0.0
22/02:00pm 34.0 38.7 24.3 57 6.8 W 7 19 4 10 1005.7 1005.6 0.0
22/01:30pm 34.4 36.1 23.1 51 7.8 WSW 19 24 10 13 1005.9 1005.8 0.0
22/01:00pm 34.2 35.8 23.2 52 7.6 WSW 20 32 11 17 1006.7 1006.6 0.0
22/12:30pm 33.5 35.3 23.2 54 7.1 W 19 30 10 16 1007.5 1007.4 0.0
22/12:00pm 32.8 35.1 23.4 57 6.5 WSW 17 24 9 13 1008.0 1007.9 0.0
22/11:30am 33.1 33.8 22.2 52 7.5 SW 22 30 12 16 1008.3 1008.2 0.0
22/11:00am 32.7 34.7 23.6 58 6.3 WSW 19 28 10 15 1008.3 1008.2 0.0
22/10:30am 31.8 33.1 23.3 60 5.9 WSW 22 32 12 17 1008.4 1008.3 0.0
22/10:00am 31.0 33.4 24.6 68 4.5 WSW 20 32 11 17 1008.7 1008.6 0.0
22/09:30am 30.1 32.9 24.3 71 4.0 WSW 17 24 9 13 1009.2 1009.1 0.0
22/09:00am 29.7 33.7 25.0 76 3.3 WSW 13 19 7 10 1009.2 1009.1 0.6
22/08:30am 28.0 33.1 25.0 84 2.1 W 7 11 4 6 1009.5 1009.4 0.6
22/08:00am 27.0 33.1 25.0 89 1.4 SSE 2 4 1 2 1009.6 1009.5 0.6
22/07:30am 26.2 32.4 24.6 91 1.1 CALM 0 2 0 1 1009.4 1009.3 0.6
22/07:00am 25.6 31.1 24.0 91 1.1 SW 2 4 1 2 1009.2 1009.1 0.6
22/06:30am 25.4 30.8 23.8 91 1.1 WSW 2 4 1 2 1008.8 1008.7 0.6
22/06:00am 25.1 29.5 23.5 91 1.1 NNW 6 6 3 3 1008.3 1008.2 0.6
22/05:30am 25.1 30.7 23.5 91 1.1 CALM 0 0 0 0 1008.1 1008.0 0.6
22/05:00am 25.3 30.9 23.5 90 1.2 CALM 0 0 0 0 1008.1 1008.0 0.6
22/04:30am 25.3 30.9 23.5 90 1.2 CALM 0 0 0 0 1007.9 1007.8 0.6
22/04:00am 25.3 30.9 23.5 90 1.2 CALM 0 0 0 0 1008.3 1008.2 0.6
22/03:30am 25.4 31.0 23.5 89 1.3 CALM 0 0 0 0 1008.6 1008.5 0.6
22/03:00am 25.5 31.0 23.4 88 1.4 CALM 0 0 0 0 1008.7 1008.6 0.6
22/02:30am 25.4 30.6 23.5 89 1.3 SW 2 4 1 2 1008.8 1008.7 0.6
22/02:00am 25.5 30.2 23.4 88 1.4 S 4 6 2 3 1009.0 1008.9 0.6
22/01:30am 25.5 29.7 23.2 87 1.6 WSW 6 7 3 4 1009.1 1009.0 0.6
22/01:00am 25.6 30.3 23.3 87 1.6 WSW 4 6 2 3 1009.3 1009.2 0.6
22/12:30am 25.7 29.5 22.8 84 2.0 WNW 7 9 4 5 1009.4 1009.3 0.6
22/12:00am 26.1 29.1 22.6 81 2.4 W 11 15 6 8 1009.8 1009.7 0.6
 
Date/Time
CST
Temp
°C
App
Temp
°C
Dew
Point
°C
Rel
Hum
%
Delta-T
°C
Wind Press
QNH
hPa
Press
MSL
hPa
Rain since
9am
mm
Dir  Spd
km/h
Gust
km/h
Spd
kts
Gust
kts
21/11:30pm 26.7 31.0 23.6 83 2.1 WSW 7 11 4 6 1010.2 1010.1 0.6
21/11:00pm 26.7 32.0 24.4 87 1.6 WNW 4 4 2 2 1010.3 1010.2 0.6
21/10:30pm 26.6 31.6 23.9 85 1.9 NW 4 6 2 3 1010.1 1010.0 0.6
21/10:00pm 26.4 31.2 24.1 87 1.6 WNW 6 7 3 4 1009.8 1009.7 0.6
21/09:30pm 26.7 31.8 24.0 85 1.9 WNW 4 4 2 2 1009.9 1009.8 0.6
21/09:00pm 26.9 31.4 23.6 82 2.3 NW 6 6 3 3 1009.5 1009.4 0.6
21/08:30pm 27.2 31.9 23.4 80 2.6 NW 4 6 2 3 1009.2 1009.1 0.6
21/08:00pm 27.7 31.2 22.9 75 3.3 NW 9 11 5 6 1008.8 1008.7 0.6
21/07:30pm 28.6 31.6 22.6 70 4.1 NW 11 15 6 8 1008.5 1008.4 0.6
21/07:00pm 29.6 32.3 22.8 67 4.6 NW 13 19 7 10 1008.0 1007.9 0.6
21/06:30pm 30.8 32.1 22.4 61 5.7 NW 19 30 10 16 1007.7 1007.6 0.6
21/06:00pm 31.4 33.6 23.2 61 5.7 WNW 17 26 9 14 1007.1 1007.0 0.6
21/05:30pm 31.5 34.1 23.3 61 5.7 WNW 15 20 8 11 1006.8 1006.7 0.6
21/05:00pm 31.3 34.1 23.7 64 5.3 WNW 15 22 8 12 1006.8 1006.7 0.6
21/04:30pm 30.9 33.6 22.8 62 5.6 W 13 17 7 9 1006.7 1006.6 0.6
21/04:00pm 32.1 35.2 22.8 58 6.4 WNW 11 17 6 9 1006.7 1006.6 0.6
21/03:30pm 31.2 33.4 21.9 57 6.3 W 13 19 7 10 1007.1 1007.0 0.6
21/03:00pm 31.3 34.3 22.6 60 6.0 W 11 15 6 8 1007.5 1007.4 0.6
21/02:30pm 31.8 35.0 23.1 60 6.0 WSW 11 19 6 10 1007.6 1007.5 0.6
21/02:00pm 30.5 32.6 22.4 62 5.5 WSW 15 20 8 11 1008.1 1008.0 0.6
21/01:30pm 30.6 33.2 22.7 62 5.4 SW 13 24 7 13 1008.2 1008.1 0.6
21/01:00pm 30.2 32.9 23.4 67 4.7 SW 15 24 8 13 1008.5 1008.4 0.6
21/12:30pm 29.6 32.5 23.1 68 4.5 WSW 13 20 7 11 1009.1 1009.0 0.6
21/12:00pm 29.2 32.7 23.6 72 3.9 WSW 11 17 6 9 1009.6 1009.5 0.6
21/11:30am 28.5 32.4 24.3 78 2.9 W 11 17 6 9 1010.1 1010.0 0.6
21/11:00am 27.5 31.8 23.7 80 2.6 WSW 7 13 4 7 1010.6 1010.5 0.4
21/10:30am 26.2 30.7 23.9 87 1.6 SW 7 9 4 5 1011.0 1010.8 0.4
21/10:00am 24.9 29.1 23.1 90 1.2 SSW 6 7 3 4 1011.2 1011.0 0.4
21/09:30am 24.1 28.3 22.5 91 1.1 SW 4 6 2 3 1011.4 1011.2 0.4
21/09:00am 23.6 28.4 22.2 92 0.9 CALM 0 0 0 0 1011.7 1011.5 11.6
21/08:30am 23.3 27.2 21.9 92 0.9 SW 4 4 2 2 1011.6 1011.4 11.2
21/08:00am 23.0 25.8 21.6 92 0.9 W 9 13 5 7 1011.1 1010.9 10.4
21/07:30am 22.9 23.1 21.4 91 1.0 SW 22 32 12 17 1011.3 1011.1 7.6
21/07:17am 24.3 25.5 21.4 84 1.9 SW 17 41 9 22 1011.1 1010.9 3.2
21/07:00am 25.8 31.9 24.4 92 1.0 CALM 0 0 0 0 1010.1 1010.0 1.6
21/06:30am 25.6 31.4 24.0 91 1.1 CALM 0 2 0 1 1009.6 1009.5 1.6
21/06:00am 25.6 31.4 24.0 91 1.1 CALM 0 4 0 2 1009.0 1008.9 1.6
21/05:30am 25.8 31.9 24.4 92 1.0 CALM 0 0 0 0 1008.7 1008.6 1.6
21/05:00am 25.9 32.0 24.5 92 1.0 CALM 0 6 0 3 1008.5 1008.4 1.0

Other Formats:

Comma delimited format used in spreadsheet applications
http://www.bom.gov.au/fwo/IDD60801/IDD60801.95121.axf

JavaScript Object Notation format (JSON) in row-major order
http://www.bom.gov.au/fwo/IDD60801/IDD60801.95121.json